Weather at San Manuel Airport

Public forecast

Using degrees Fahrenheit for public forecast. Weather courtesy of forecast.io.

Closest aviation weather report (METAR) to San Manuel Airport

Closest report is Davis Monthan Air Force Base, 30.7 nm (56.8 km) SSW. Retrieved 2020/12/02 17:58 UTC (2 minutes ago):

KDMA 021758Z 00000KT 10SM CLR 14/M10 A3011 RMK AO2A SLPNO ALSTG ESTMD RVRNO FZRANO

Closest aviation forecast (TAF) to San Manuel Airport

Forecast is more than 12 hours old.

Closest forecast is Davis Monthan Air Force Base, 30.7 nm (56.8 km) SSW. Retrieved 2020/12/01 22:12 UTC (20 hours ago):

TAF KDMA 012204Z 0122/0304 VRB06KT 9999 SKC QNH2999INS BECMG 0205/0206 12007KT 9999 SKC QNH3002INS BECMG 0217/0218 VRB06KT 9999 SKC QNH3000INS TX20/0122Z TN04/0214Z